createdAt,value
2023-03-23T15:57:52.734Z,10.27
2023-03-23T16:00:21.512Z,5.03
2023-03-23T16:02:55.147Z,5.93
2023-03-23T16:05:21.956Z,6.97
2023-03-23T16:07:48.781Z,13.20
2023-03-23T16:10:21.363Z,11.00
2023-03-23T16:12:48.232Z,8.67
2023-03-23T16:15:15.782Z,6.60
2023-03-23T16:17:43.393Z,10.13
2023-03-23T16:20:22.194Z,5.47
2023-03-23T16:22:50.903Z,5.17
2023-03-23T16:25:19.039Z,4.73
2023-03-23T16:27:51.282Z,5.70
2023-03-23T16:30:27.182Z,4.73
2023-03-23T16:32:55.464Z,5.20
2023-03-23T16:35:22.820Z,12.57
2023-03-23T16:38:07.679Z,14.80
2023-03-23T16:40:35.553Z,17.47
2023-03-23T16:43:02.139Z,21.63
2023-03-23T16:45:43.127Z,8.63
2023-03-23T16:48:11.993Z,13.00
2023-03-23T16:50:39.216Z,9.93
2023-03-23T16:53:08.127Z,7.40
2023-03-23T16:55:35.849Z,5.90
2023-03-23T16:58:15.418Z,9.57
2023-03-23T17:00:44.767Z,12.97
2023-03-23T17:03:11.516Z,15.47
2023-03-23T17:05:38.535Z,7.77
2023-03-23T17:08:05.912Z,6.83
2023-03-23T17:10:32.989Z,5.23
2023-03-23T17:12:59.950Z,10.07
2023-03-23T17:15:26.875Z,5.20
2023-03-23T17:17:55.155Z,4.27
2023-03-23T17:20:23.082Z,4.93
2023-03-23T17:22:50.305Z,5.63
2023-03-23T17:25:16.999Z,9.37
2023-03-23T17:27:43.837Z,5.30
2023-03-23T17:30:11.582Z,9.93
2023-03-23T17:32:38.404Z,6.43
2023-03-23T17:35:06.827Z,3.93
2023-03-23T17:37:34.843Z,4.40
2023-03-23T17:40:02.289Z,9.07
2023-03-23T17:42:30.129Z,12.93
2023-03-23T17:44:56.767Z,23.80
2023-03-23T17:47:24.225Z,13.50
2023-03-23T17:49:51.490Z,14.20
2023-03-23T17:52:20.233Z,21.10
2023-03-23T17:54:47.039Z,24.80
2023-03-23T17:57:15.927Z,33.60
2023-03-23T17:59:42.602Z,29.10
2023-03-23T18:02:11.167Z,27.93
2023-03-23T18:04:37.912Z,34.13
2023-03-23T18:07:05.665Z,99.53
2023-03-23T18:09:35.153Z,62.50
2023-03-23T18:12:04.529Z,63.47
2023-03-23T18:14:34.121Z,22.47
2023-03-23T18:17:02.266Z,31.63
2023-03-23T18:19:29.078Z,33.47
2023-03-23T18:22:10.976Z,37.43
2023-03-23T18:24:52.737Z,34.77
2023-03-23T18:27:19.320Z,34.53
2023-03-23T18:29:46.220Z,29.57
2023-03-23T18:32:13.006Z,23.37
2023-03-23T18:34:43.583Z,23.67
2023-03-23T18:37:13.049Z,13.47
2023-03-23T18:39:39.747Z,11.93
2023-03-23T18:42:07.026Z,14.40
2023-03-23T18:44:34.479Z,9.23
2023-03-23T18:47:01.423Z,6.73
2023-03-23T18:49:29.610Z,11.27
2023-03-23T18:52:01.503Z,14.37
2023-03-23T18:54:29.059Z,12.93
2023-03-23T18:56:56.069Z,13.50
2023-03-23T18:59:30.427Z,13.57
2023-03-23T19:01:57.965Z,11.20
2023-03-23T19:04:25.228Z,9.23
2023-03-23T19:06:51.878Z,11.97
2023-03-23T19:09:21.270Z,15.23
2023-03-23T19:11:48.135Z,11.63
2023-03-23T19:14:17.226Z,10.63
2023-03-23T19:16:43.990Z,8.87
2023-03-23T19:19:13.134Z,12.60
2023-03-23T19:21:46.848Z,12.20
2023-03-23T19:24:14.128Z,10.03
2023-03-23T19:26:43.454Z,18.43
2023-03-23T19:29:26.535Z,11.63
2023-03-23T19:31:55.399Z,9.30
2023-03-23T19:34:24.086Z,7.90
2023-03-23T19:36:59.486Z,7.63
2023-03-23T19:39:31.374Z,5.27
2023-03-23T19:41:58.496Z,6.23
2023-03-23T19:44:25.602Z,6.27
2023-03-23T19:46:53.467Z,8.03
2023-03-23T19:49:20.224Z,5.67
2023-03-23T19:51:46.891Z,6.67
2023-03-23T19:54:13.569Z,5.57
2023-03-23T19:56:40.507Z,5.37
2023-03-23T19:59:10.573Z,6.80
2023-03-23T20:01:37.432Z,7.43
2023-03-23T20:04:05.341Z,7.83
2023-03-23T20:06:32.819Z,6.67
2023-03-23T20:09:03.115Z,6.53
2023-03-23T20:11:30.788Z,5.77
2023-03-23T20:13:57.841Z,8.77
2023-03-23T20:16:26.199Z,8.93
2023-03-23T20:18:53.656Z,5.97
2023-03-23T20:21:22.836Z,7.67
2023-03-23T20:23:53.154Z,9.40
2023-03-23T20:26:32.686Z,19.17
2023-03-23T20:29:00.691Z,13.53
2023-03-23T20:31:30.378Z,23.13
2023-03-23T20:34:03.117Z,14.60
2023-03-23T20:36:35.055Z,16.67
2023-03-23T20:39:10.707Z,13.17
2023-03-23T20:41:38.921Z,13.00
2023-03-23T20:44:07.892Z,10.30
2023-03-23T20:46:35.340Z,9.37
2023-03-23T20:49:02.739Z,7.53
2023-03-23T20:51:29.820Z,9.43
2023-03-23T20:53:56.451Z,9.80
2023-03-23T20:56:24.486Z,8.27
2023-03-23T20:58:51.439Z,9.13
2023-03-23T21:01:18.196Z,12.70
2023-03-23T21:03:44.927Z,10.57
2023-03-23T21:06:11.981Z,11.10
2023-03-23T21:08:40.808Z,11.97
2023-03-23T21:11:10.370Z,12.07
2023-03-23T21:13:37.085Z,11.57
2023-03-23T21:16:05.217Z,12.90
2023-03-23T21:18:32.166Z,10.47
2023-03-23T21:21:00.482Z,11.90
2023-03-23T21:23:29.695Z,12.20
2023-03-23T21:26:02.230Z,11.27
2023-03-23T21:28:29.593Z,11.33
2023-03-23T21:31:05.201Z,11.03
2023-03-23T21:33:32.240Z,11.50
2023-03-23T21:36:00.431Z,11.53
2023-03-23T21:38:28.083Z,13.87
2023-03-23T21:40:56.386Z,13.83
2023-03-23T21:43:27.577Z,11.87
2023-03-23T21:45:56.620Z,15.77
2023-03-23T21:48:24.081Z,11.23
2023-03-23T21:50:50.874Z,11.27
2023-03-23T21:53:20.728Z,14.17
2023-03-23T21:55:51.843Z,16.17
2023-03-23T21:58:20.200Z,11.57
2023-03-23T22:00:49.970Z,9.40
2023-03-23T22:03:18.948Z,10.13
2023-03-23T22:05:46.474Z,12.77
2023-03-23T22:08:13.992Z,11.73
2023-03-23T22:10:43.001Z,9.93
2023-03-23T22:13:31.682Z,8.83
2023-03-23T22:16:01.126Z,13.27
2023-03-23T22:18:28.639Z,11.77
2023-03-23T22:20:56.762Z,6.83
2023-03-23T22:23:23.432Z,8.63
2023-03-23T22:25:50.154Z,9.53
2023-03-23T22:28:19.530Z,8.80
2023-03-23T22:30:47.709Z,9.17
2023-03-23T22:33:14.747Z,9.40
2023-03-23T22:35:41.483Z,10.17
2023-03-23T22:38:08.159Z,6.07
2023-03-23T22:40:34.982Z,7.67
2023-03-23T22:43:03.259Z,7.70
2023-03-23T22:45:30.238Z,15.00
2023-03-23T22:47:58.158Z,10.10
2023-03-23T22:50:25.010Z,9.93
2023-03-23T22:52:51.739Z,14.00
2023-03-23T22:55:18.572Z,12.77
2023-03-23T22:57:45.892Z,14.43
2023-03-23T23:00:18.670Z,14.37
2023-03-23T23:02:45.843Z,11.07
2023-03-23T23:05:13.883Z,9.63
2023-03-23T23:07:40.959Z,13.03
2023-03-23T23:10:08.262Z,13.20
2023-03-23T23:12:35.417Z,17.33
2023-03-23T23:15:04.656Z,16.67
2023-03-23T23:17:35.108Z,21.00
2023-03-23T23:20:05.774Z,16.67
2023-03-23T23:22:33.550Z,18.83
2023-03-23T23:25:01.251Z,17.33
2023-03-23T23:27:27.935Z,16.97
2023-03-23T23:29:54.680Z,12.40
2023-03-23T23:32:21.554Z,11.33
2023-03-23T23:34:48.516Z,12.40
2023-03-23T23:37:15.416Z,13.57
2023-03-23T23:39:42.623Z,13.07
2023-03-23T23:42:09.810Z,10.90
2023-03-23T23:44:36.835Z,9.77
2023-03-23T23:47:04.586Z,18.03
2023-03-23T23:49:34.216Z,12.97
2023-03-23T23:52:01.170Z,13.40
2023-03-23T23:54:30.819Z,12.53
2023-03-23T23:56:59.340Z,13.43
2023-03-23T23:59:26.696Z,12.53
